Time;durP1;ratioP1;P1;durP2;ratioP2;P2;SDS_P1;SDS_P2;PMS_P1;PMS_P2;Temp;Humidity;BMP_temperature;BMP_pressure;BME280_temperature;BME280_humidity;BME280_pressure;Samples;Min_cycle;Max_cycle;Signal;HPM_P1;HPM_P2
2022/06/27 00:01:50;;;;;;;4.90;4.50;;;19.60;99.90;;;;;;4983356;28;20191;-80
2022/06/27 00:04:16;;;;;;;5.57;5.18;;;19.60;99.90;;;;;;4981383;28;20180;-80
2022/06/27 00:06:41;;;;;;;5.55;5.15;;;19.60;99.90;;;;;;4998931;28;20653;-80
2022/06/27 00:09:07;;;;;;;5.55;5.05;;;19.60;99.90;;;;;;4980044;28;20303;-79
2022/06/27 00:11:33;;;;;;;6.28;5.78;;;19.60;99.90;;;;;;4997206;28;20646;-79
2022/06/27 00:13:59;;;;;;;6.50;5.93;;;19.50;99.90;;;;;;4982077;28;20576;-79
2022/06/27 00:16:24;;;;;;;5.70;5.30;;;19.40;99.90;;;;;;4981126;28;20188;-79
2022/06/27 00:18:50;;;;;;;6.28;5.68;;;19.40;99.90;;;;;;4981782;28;20638;-81
2022/06/27 00:21:16;;;;;;;5.40;5.00;;;19.40;99.90;;;;;;4979624;28;20184;-79
2022/06/27 00:23:41;;;;;;;6.40;5.82;;;19.30;99.90;;;;;;4999198;28;20211;-79
2022/06/27 00:26:08;;;;;;;6.35;5.85;;;19.30;99.90;;;;;;4981684;28;20190;-79
2022/06/27 00:28:33;;;;;;;6.88;6.32;;;19.30;99.90;;;;;;4998075;28;20234;-79
2022/06/27 00:30:59;;;;;;;6.90;6.32;;;19.10;99.90;;;;;;4981796;28;20184;-79
2022/06/27 00:33:25;;;;;;;7.07;6.45;;;18.90;99.90;;;;;;4981071;28;20284;-79
2022/06/27 00:35:50;;;;;;;6.75;6.25;;;18.90;99.90;;;;;;4980842;28;20344;-79
2022/06/27 00:38:16;;;;;;;6.43;5.93;;;18.90;99.90;;;;;;4997641;28;20560;-79
2022/06/27 00:40:42;;;;;;;6.63;6.05;;;18.90;99.90;;;;;;4997313;28;20211;-78
2022/06/27 00:43:08;;;;;;;6.28;5.78;;;18.90;99.90;;;;;;4998080;28;20195;-78
2022/06/27 00:45:33;;;;;;;6.20;5.63;;;19.00;99.90;;;;;;4980882;28;20179;-81
2022/06/27 00:47:59;;;;;;;7.35;6.07;;;18.90;99.90;;;;;;4979398;28;20258;-79
2022/06/27 00:50:25;;;;;;;6.68;6.18;;;19.00;99.90;;;;;;4997978;28;21080;-79
2022/06/27 00:52:51;;;;;;;5.78;5.38;;;19.00;99.90;;;;;;4998944;28;20530;-80
2022/06/27 00:55:17;;;;;;;6.75;6.15;;;19.00;99.90;;;;;;4979930;28;20211;-79
2022/06/27 00:57:43;;;;;;;6.65;6.15;;;19.00;99.90;;;;;;4998057;28;20184;-80
2022/06/27 01:00:09;;;;;;;7.28;6.68;;;19.10;99.90;;;;;;4980029;28;20673;-78
2022/06/27 01:02:35;;;;;;;6.78;6.18;;;19.10;99.90;;;;;;4980214;28;20192;-81
2022/06/27 01:05:02;;;;;;;6.65;6.05;;;19.00;99.90;;;;;;4980585;28;20176;-79
2022/06/27 01:07:29;;;;;;;6.85;6.20;;;19.00;99.90;;;;;;4997884;28;20487;-79
2022/06/27 01:09:57;;;;;;;6.65;6.15;;;18.90;99.90;;;;;;4998848;28;20756;-78
2022/06/27 01:12:23;;;;;;;6.72;6.03;;;18.90;99.90;;;;;;4998039;28;20668;-79
2022/06/27 01:14:50;;;;;;;7.32;6.70;;;18.70;99.90;;;;;;4998709;28;20192;-80
2022/06/27 01:17:17;;;;;;;7.57;6.90;;;18.60;99.90;;;;;;4980460;28;20700;-78
2022/06/27 01:19:42;;;;;;;6.60;6.10;;;18.50;99.90;;;;;;4997724;28;20286;-78
2022/06/27 01:22:09;;;;;;;6.90;6.25;;;18.40;99.90;;;;;;4997538;28;20223;-79
2022/06/27 01:24:35;;;;;;;7.28;6.68;;;18.40;99.90;;;;;;4979173;28;20208;-80
2022/06/27 01:27:01;;;;;;;7.65;6.95;;;18.30;99.90;;;;;;4996652;28;20294;-79
2022/06/27 01:29:27;;;;;;;7.28;6.68;;;18.20;99.90;;;;;;4997092;28;20245;-80
2022/06/27 01:31:53;;;;;;;7.60;7.00;;;18.10;99.90;;;;;;4997846;28;20647;-79
2022/06/27 01:34:18;;;;;;;7.72;7.05;;;18.00;99.90;;;;;;4997616;28;20190;-80
2022/06/27 01:36:46;;;;;;;8.15;7.55;;;18.10;99.90;;;;;;4978922;28;20263;-80
2022/06/27 01:39:14;;;;;;;7.55;6.85;;;18.20;99.90;;;;;;4979495;28;20211;-78
2022/06/27 01:41:48;;;;;;;7.40;6.82;;;18.20;99.90;;;;;;4997348;28;20756;-79
2022/06/27 01:44:14;;;;;;;8.02;7.22;;;18.30;99.90;;;;;;4997917;28;20179;-78
2022/06/27 01:46:43;;;;;;;8.60;7.90;;;18.40;99.90;;;;;;4979806;28;20183;-78
2022/06/27 01:49:09;;;;;;;9.35;7.82;;;18.30;99.90;;;;;;4979957;28;20218;-81
2022/06/27 01:51:36;;;;;;;8.15;7.45;;;18.20;99.90;;;;;;4996563;28;20175;-78
2022/06/27 01:54:03;;;;;;;8.00;7.28;;;18.20;99.90;;;;;;4996262;28;20584;-78
2022/06/27 01:56:29;;;;;;;8.80;8.00;;;18.30;99.90;;;;;;4978912;28;20231;-81
2022/06/27 01:58:57;;;;;;;8.35;7.60;;;18.30;99.90;;;;;;4980153;28;20222;-79
2022/06/27 02:01:27;;;;;;;8.20;7.57;;;18.30;99.90;;;;;;4979203;28;20188;-78
2022/06/27 02:03:54;;;;;;;8.02;7.22;;;18.30;99.90;;;;;;4980077;28;20180;-81
2022/06/27 02:06:20;;;;;;;8.80;8.10;;;18.20;99.90;;;;;;4997713;28;20181;-79
2022/06/27 02:08:47;;;;;;;7.60;6.93;;;18.20;99.90;;;;;;4978634;28;20801;-78
2022/06/27 02:11:14;;;;;;;7.43;6.72;;;18.20;99.90;;;;;;4979738;28;20197;-78
2022/06/27 02:13:41;;;;;;;8.40;7.70;;;18.30;99.90;;;;;;4995857;28;20200;-80
2022/06/27 02:16:15;;;;;;;8.23;7.43;;;18.30;99.90;;;;;;4979727;28;20194;-78
2022/06/27 02:18:42;;;;;;;7.90;7.20;;;18.30;99.90;;;;;;4995580;28;20183;-80
2022/06/27 02:21:10;;;;;;;7.53;6.90;;;18.40;99.90;;;;;;4979368;28;20274;-80
2022/06/27 02:23:36;;;;;;;7.75;7.05;;;18.40;99.90;;;;;;4978433;28;20194;-81
2022/06/27 02:26:02;;;;;;;8.15;7.53;;;18.40;99.90;;;;;;4996225;28;20187;-81
2022/06/27 02:28:29;;;;;;;7.80;7.20;;;18.40;99.90;;;;;;4979020;28;20755;-78
2022/06/27 02:30:55;;;;;;;7.88;7.20;;;18.40;99.90;;;;;;4995696;28;20183;-79
2022/06/27 02:33:21;;;;;;;8.40;7.60;;;18.30;99.90;;;;;;4979498;28;20188;-79
2022/06/27 02:35:48;;;;;;;7.75;6.95;;;18.30;99.90;;;;;;4978371;28;20211;-79
2022/06/27 02:38:16;;;;;;;7.65;7.00;;;18.20;99.90;;;;;;4994617;28;20191;-79
2022/06/27 02:40:44;;;;;;;8.07;7.38;;;18.20;99.90;;;;;;4977608;28;20681;-79
2022/06/27 02:43:14;;;;;;;7.72;7.10;;;18.20;99.90;;;;;;4996070;28;20271;-79
2022/06/27 02:45:40;;;;;;;8.38;7.68;;;18.20;99.90;;;;;;4978647;28;20712;-80
2022/06/27 02:48:07;;;;;;;8.15;7.35;;;18.20;99.90;;;;;;4996958;28;20211;-81
2022/06/27 02:50:37;;;;;;;7.93;7.32;;;18.20;99.90;;;;;;4995966;28;20196;-81
2022/06/27 02:53:11;;;;;;;9.40;8.60;;;18.20;99.90;;;;;;4995932;28;20204;-80
2022/06/27 02:55:41;;;;;;;8.18;7.55;;;18.30;99.90;;;;;;4995414;28;20267;-81
2022/06/27 02:58:16;;;;;;;8.32;7.57;;;18.30;99.90;;;;;;4996016;28;20187;-81
2022/06/27 03:00:43;;;;;;;7.88;7.18;;;18.30;99.90;;;;;;4996037;28;21514;-80
2022/06/27 03:03:13;;;;;;;10.30;8.23;;;18.40;99.90;;;;;;4978792;28;20650;-81
2022/06/27 03:06:14;;;;;;;8.13;7.45;;;18.40;99.90;;;;;;4976659;28;20267;-81
2022/06/27 03:08:41;;;;;;;9.05;8.18;;;18.50;99.90;;;;;;4919106;29;20685;-80
2022/06/27 03:11:06;;;;;;;8.80;8.00;;;18.50;99.90;;;;;;4966291;28;20188;-81
2022/06/27 03:13:33;;;;;;;8.32;7.55;;;18.50;99.90;;;;;;4977832;28;20187;-80
2022/06/27 03:15:59;;;;;;;8.02;7.25;;;18.50;99.90;;;;;;4994446;28;20180;-81
2022/06/27 03:18:24;;;;;;;8.32;7.63;;;18.50;99.90;;;;;;4978694;28;20673;-79
2022/06/27 03:20:50;;;;;;;8.30;7.53;;;18.50;99.90;;;;;;4979048;28;20206;-79
2022/06/27 03:23:16;;;;;;;8.65;7.80;;;18.60;99.90;;;;;;4977998;28;20187;-79
2022/06/27 03:25:42;;;;;;;8.32;7.40;;;18.60;99.90;;;;;;4977299;28;20192;-79
2022/06/27 03:28:08;;;;;;;8.30;7.55;;;18.60;99.90;;;;;;4993043;28;20218;-79
2022/06/27 03:30:33;;;;;;;7.97;7.28;;;18.70;99.90;;;;;;4977406;28;20207;-79
2022/06/27 03:32:59;;;;;;;7.95;7.35;;;18.80;99.90;;;;;;4994510;28;20180;-79
2022/06/27 03:35:25;;;;;;;8.48;7.65;;;18.80;99.90;;;;;;4996071;28;20194;-80
2022/06/27 03:37:51;;;;;;;9.35;7.50;;;18.90;99.90;;;;;;4994827;28;20187;-79
2022/06/27 03:40:17;;;;;;;7.82;7.22;;;18.80;99.90;;;;;;4994266;28;20580;-79
2022/06/27 03:42:42;;;;;;;9.57;7.22;;;18.80;99.90;;;;;;4978092;28;20191;-79
2022/06/27 03:45:08;;;;;;;8.10;7.38;;;18.80;99.90;;;;;;4995220;28;20180;-80
2022/06/27 03:47:45;;;;;;;7.75;7.15;;;18.80;99.90;;;;;;4977619;28;20176;-79
2022/06/27 03:50:13;;;;;;;8.32;7.53;;;18.80;99.90;;;;;;4978040;28;20686;-79
2022/06/27 03:52:39;;;;;;;9.07;7.35;;;18.80;99.90;;;;;;4995246;28;20184;-79
2022/06/27 03:55:07;;;;;;;8.63;7.25;;;18.90;99.90;;;;;;4977563;28;20184;-80
2022/06/27 03:57:34;;;;;;;8.13;7.35;;;18.90;99.90;;;;;;4978508;28;20187;-79
2022/06/27 04:00:00;;;;;;;9.50;7.50;;;18.90;99.90;;;;;;4995347;28;20324;-79
2022/06/27 04:02:27;;;;;;;8.45;7.78;;;19.00;99.90;;;;;;4978442;28;20678;-81
2022/06/27 04:04:53;;;;;;;7.85;7.07;;;19.10;99.90;;;;;;4994954;28;20319;-79
2022/06/27 04:07:19;;;;;;;8.25;7.55;;;19.20;99.90;;;;;;4994975;28;20267;-79
2022/06/27 04:09:44;;;;;;;8.38;7.68;;;19.20;99.90;;;;;;4978215;28;20231;-79
2022/06/27 04:12:11;;;;;;;7.88;7.20;;;19.20;99.90;;;;;;4977132;28;20333;-79
2022/06/27 04:14:37;;;;;;;8.60;7.20;;;19.20;99.90;;;;;;4995353;28;20181;-79
2022/06/27 04:17:03;;;;;;;8.35;7.65;;;19.20;99.90;;;;;;4978214;28;20180;-79
2022/06/27 04:19:29;;;;;;;8.35;7.55;;;19.10;99.90;;;;;;4980708;28;20572;-79
2022/06/27 04:21:54;;;;;;;7.65;7.05;;;19.10;99.90;;;;;;4998917;28;20180;-79
2022/06/27 04:24:20;;;;;;;8.13;7.32;;;19.10;99.90;;;;;;4998642;28;20188;-79
2022/06/27 04:26:46;;;;;;;9.23;8.30;;;19.20;99.90;;;;;;4981169;28;20617;-79
2022/06/27 04:29:12;;;;;;;8.57;7.78;;;19.20;99.90;;;;;;4996737;28;20219;-79
2022/06/27 04:31:37;;;;;;;8.70;8.00;;;19.20;99.90;;;;;;4980474;28;20186;-81
2022/06/27 04:34:04;;;;;;;8.73;7.90;;;19.20;99.90;;;;;;4998128;28;20779;-79
2022/06/27 04:36:31;;;;;;;8.68;7.97;;;19.30;99.90;;;;;;4998977;28;20176;-82
2022/06/27 04:38:57;;;;;;;8.65;7.80;;;19.30;99.90;;;;;;4999734;28;20204;-80
2022/06/27 04:41:25;;;;;;;9.05;8.25;;;19.40;99.90;;;;;;4996926;28;20682;-79
2022/06/27 04:43:53;;;;;;;8.13;7.43;;;19.50;99.90;;;;;;4997400;28;20199;-79
2022/06/27 04:46:19;;;;;;;7.28;6.68;;;19.60;99.90;;;;;;4997775;28;20277;-80
2022/06/27 04:48:45;;;;;;;8.30;7.60;;;19.70;99.90;;;;;;4997867;28;21352;-79
2022/06/27 04:51:13;;;;;;;7.40;6.80;;;19.80;99.90;;;;;;4978085;28;20334;-80
2022/06/27 04:53:38;;;;;;;8.27;7.38;;;20.10;99.90;;;;;;4996787;28;20650;-79
2022/06/27 04:56:05;;;;;;;8.20;7.40;;;20.20;99.90;;;;;;4998313;28;20210;-79
2022/06/27 04:58:31;;;;;;;7.70;7.00;;;20.30;99.90;;;;;;4996715;28;20191;-80
2022/06/27 05:00:56;;;;;;;7.65;6.95;;;20.40;99.90;;;;;;4999578;28;20183;-79
2022/06/27 05:03:23;;;;;;;7.43;6.82;;;20.40;99.90;;;;;;4980591;28;20183;-79
2022/06/27 05:05:50;;;;;;;7.65;6.85;;;20.40;99.90;;;;;;4980627;28;20194;-80
2022/06/27 05:08:16;;;;;;;7.30;6.70;;;20.40;99.90;;;;;;4977999;28;20394;-80
2022/06/27 05:10:42;;;;;;;7.30;6.65;;;20.40;99.90;;;;;;4980100;28;20243;-79
2022/06/27 05:13:08;;;;;;;7.30;6.70;;;20.30;99.90;;;;;;4997923;28;20212;-79
2022/06/27 05:15:34;;;;;;;7.28;6.55;;;20.20;99.90;;;;;;4979179;28;20187;-79
2022/06/27 05:18:01;;;;;;;6.40;5.90;;;20.20;99.90;;;;;;4978920;28;20219;-80
2022/06/27 05:20:28;;;;;;;5.22;4.82;;;20.30;99.90;;;;;;4978636;28;20232;-79
2022/06/27 05:22:53;;;;;;;5.43;4.85;;;20.30;99.90;;;;;;4997780;28;20991;-80
2022/06/27 05:25:19;;;;;;;5.13;4.65;;;20.30;99.90;;;;;;4979230;28;20216;-79
2022/06/27 05:27:44;;;;;;;5.10;4.70;;;20.20;99.90;;;;;;4997443;28;20215;-79
2022/06/27 05:30:10;;;;;;;5.43;4.93;;;20.20;99.90;;;;;;4976037;28;20215;-79
2022/06/27 05:32:36;;;;;;;5.25;4.75;;;20.20;99.90;;;;;;4980854;28;20199;-79
2022/06/27 05:35:01;;;;;;;5.82;5.40;;;20.40;99.90;;;;;;4979229;28;20179;-79
2022/06/27 05:37:27;;;;;;;5.78;5.22;;;20.30;99.90;;;;;;4979468;28;20175;-80
2022/06/27 05:39:53;;;;;;;5.28;4.88;;;20.20;99.90;;;;;;4996615;28;20203;-79
2022/06/27 05:42:18;;;;;;;5.55;5.07;;;20.40;99.90;;;;;;4979019;28;20175;-79
2022/06/27 05:44:44;;;;;;;5.57;5.18;;;20.40;99.90;;;;;;4979195;28;20240;-79
2022/06/27 05:47:10;;;;;;;4.72;4.32;;;20.30;99.90;;;;;;4979296;28;20207;-80
2022/06/27 05:49:39;;;;;;;6.00;5.55;;;20.30;99.90;;;;;;4997290;28;20212;-80
2022/06/27 05:52:05;;;;;;;6.25;5.63;;;20.10;99.90;;;;;;4995982;28;20278;-79
2022/06/27 05:54:31;;;;;;;5.95;5.28;;;20.10;99.90;;;;;;4994875;28;20319;-80
2022/06/27 05:56:58;;;;;;;5.85;5.35;;;20.20;99.90;;;;;;4979364;28;20211;-79
2022/06/27 05:59:24;;;;;;;5.68;5.20;;;20.40;99.90;;;;;;4979732;28;20709;-79
2022/06/27 06:01:51;;;;;;;5.45;5.05;;;20.40;99.90;;;;;;4979467;28;20196;-79
2022/06/27 06:04:18;;;;;;;6.28;5.68;;;20.40;99.90;;;;;;4978270;28;20668;-81
2022/06/27 06:06:43;;;;;;;5.72;5.30;;;20.30;99.90;;;;;;4997131;28;20645;-79
2022/06/27 06:09:11;;;;;;;6.00;5.50;;;20.30;99.90;;;;;;4978934;28;20230;-80
2022/06/27 06:11:38;;;;;;;5.93;5.43;;;20.30;99.90;;;;;;4997121;28;20211;-80
2022/06/27 06:14:04;;;;;;;6.28;5.68;;;20.40;99.90;;;;;;4996489;28;20231;-80
2022/06/27 06:16:30;;;;;;;6.20;5.70;;;20.40;99.90;;;;;;4996489;28;20176;-80
2022/06/27 06:18:57;;;;;;;6.32;5.72;;;20.40;99.90;;;;;;4996465;28;20257;-79
2022/06/27 06:21:23;;;;;;;5.75;5.25;;;20.40;99.90;;;;;;4979798;28;20182;-79
2022/06/27 06:23:51;;;;;;;6.53;5.93;;;20.40;99.90;;;;;;4995884;28;20187;-80
2022/06/27 06:26:19;;;;;;;5.78;5.35;;;20.50;99.90;;;;;;4978855;28;20207;-80
2022/06/27 06:28:46;;;;;;;5.57;5.18;;;20.50;99.90;;;;;;4995604;28;20701;-79
2022/06/27 06:31:15;;;;;;;5.75;5.25;;;20.60;99.90;;;;;;4979173;28;20436;-80
2022/06/27 06:33:42;;;;;;;5.60;5.20;;;20.70;99.90;;;;;;4994650;28;20179;-79
2022/06/27 06:36:09;;;;;;;5.95;5.50;;;20.80;99.90;;;;;;4978794;28;20279;-80
2022/06/27 06:38:35;;;;;;;6.40;5.90;;;20.90;99.90;;;;;;4976507;28;20195;-79
2022/06/27 06:41:00;;;;;;;6.35;5.85;;;20.90;99.90;;;;;;4997619;28;20338;-80
2022/06/27 06:43:27;;;;;;;5.90;5.40;;;20.90;99.90;;;;;;4977553;28;20311;-79
2022/06/27 06:45:53;;;;;;;5.82;5.43;;;20.90;99.90;;;;;;4979120;28;20215;-80
2022/06/27 06:48:19;;;;;;;5.60;5.13;;;21.00;99.90;;;;;;4995688;28;20218;-79
2022/06/27 06:50:44;;;;;;;5.75;5.25;;;21.10;99.90;;;;;;4978625;28;21246;-80
2022/06/27 06:53:10;;;;;;;5.68;5.20;;;21.30;99.90;;;;;;4977163;28;20184;-80
2022/06/27 06:55:35;;;;;;;6.45;5.85;;;21.40;99.90;;;;;;4997069;28;20183;-80
2022/06/27 06:58:01;;;;;;;5.70;5.28;;;21.60;99.90;;;;;;4978385;28;20250;-83
2022/06/27 07:00:27;;;;;;;5.85;5.32;;;21.60;99.90;;;;;;4985586;23;20267;-70
2022/06/27 07:02:53;;;;;;;5.68;5.25;;;21.60;99.90;;;;;;4968302;28;20272;-72
2022/06/27 07:05:19;;;;;;;6.28;5.78;;;21.70;99.90;;;;;;4969084;28;20184;-71
2022/06/27 07:07:47;;;;;;;5.75;5.25;;;21.80;99.90;;;;;;4968343;28;20600;-72
2022/06/27 07:10:13;;;;;;;5.35;4.95;;;21.90;99.90;;;;;;4968282;28;20212;-73
2022/06/27 07:12:40;;;;;;;5.80;5.30;;;22.10;99.90;;;;;;4968543;28;20177;-71
2022/06/27 07:15:12;;;;;;;6.10;5.60;;;22.30;99.90;;;;;;4967972;28;20192;-71
2022/06/27 07:17:46;;;;;;;6.60;5.72;;;22.30;99.90;;;;;;4966873;28;20169;-71
2022/06/27 07:20:18;;;;;;;5.60;5.20;;;22.30;99.90;;;;;;4968601;28;20208;-71
2022/06/27 07:22:45;;;;;;;5.72;5.22;;;22.40;99.90;;;;;;4968188;28;20224;-71
2022/06/27 07:25:11;;;;;;;5.78;5.30;;;22.60;99.90;;;;;;4950213;28;20212;-71
2022/06/27 07:27:37;;;;;;;6.03;5.53;;;22.40;99.90;;;;;;4967575;28;20599;-71
2022/06/27 07:30:05;;;;;;;7.40;5.78;;;22.50;99.90;;;;;;4971664;28;20220;-70
2022/06/27 07:32:31;;;;;;;6.45;5.95;;;22.20;99.90;;;;;;4968451;28;20173;-71
2022/06/27 07:34:58;;;;;;;7.70;6.40;;;22.00;99.90;;;;;;4966333;28;21080;-72
2022/06/27 07:37:25;;;;;;;6.22;5.72;;;22.10;99.90;;;;;;4966796;28;20187;-71
2022/06/27 07:39:53;;;;;;;6.50;6.00;;;22.20;99.90;;;;;;4968363;28;20763;-70
2022/06/27 07:42:19;;;;;;;6.30;5.80;;;22.20;99.90;;;;;;4970662;28;20184;-70
2022/06/27 07:44:45;;;;;;;6.40;5.90;;;22.30;99.90;;;;;;4948791;28;20200;-70
2022/06/27 07:47:10;;;;;;;6.60;6.00;;;22.50;99.90;;;;;;4948986;28;20221;-71
2022/06/27 07:49:36;;;;;;;6.75;6.15;;;22.50;99.90;;;;;;4964151;28;20761;-70
2022/06/27 07:52:02;;;;;;;7.22;6.63;;;22.50;99.90;;;;;;4966076;28;20197;-70
2022/06/27 07:54:28;;;;;;;6.70;6.20;;;22.60;99.90;;;;;;4951662;28;20289;-70
2022/06/27 07:56:55;;;;;;;7.20;6.60;;;22.70;99.90;;;;;;4969561;28;20279;-71
2022/06/27 07:59:22;;;;;;;7.68;7.07;;;22.90;99.90;;;;;;4951693;28;20699;-70
2022/06/27 08:01:49;;;;;;;6.50;5.90;;;23.00;99.90;;;;;;4968318;28;20548;-71
2022/06/27 08:04:15;;;;;;;6.25;5.65;;;22.90;99.90;;;;;;4967436;28;20738;-70
2022/06/27 08:06:42;;;;;;;6.95;6.45;;;23.00;99.90;;;;;;4951217;28;20193;-70
2022/06/27 08:09:46;;;;;;;6.63;6.03;;;23.10;99.90;;;;;;4968051;28;20730;-73
2022/06/27 08:12:12;;;;;;;7.88;5.88;;;23.10;99.90;;;;;;4969921;28;20193;-72
2022/06/27 08:15:09;;;;;;;7.47;6.30;;;23.00;81.70;;;;;;4969012;28;20217;-72
2022/06/27 08:17:34;;;;;;;6.43;5.93;;;23.00;87.40;;;;;;4968328;28;20185;-72
2022/06/27 08:20:00;;;;;;;8.48;6.65;;;22.90;97.10;;;;;;4951052;28;20205;-71
2022/06/27 08:22:25;;;;;;;7.30;6.32;;;22.80;99.90;;;;;;4968699;28;20185;-71
2022/06/27 08:24:52;;;;;;;7.18;6.57;;;22.80;99.90;;;;;;4951173;28;20715;-72
2022/06/27 08:27:46;;;;;;;6.85;6.35;;;22.80;99.90;;;;;;4972099;28;20172;-73
2022/06/27 08:30:14;;;;;;;6.85;6.25;;;22.90;99.90;;;;;;4966639;28;20217;-71
2022/06/27 08:32:40;;;;;;;6.18;5.65;;;23.00;99.90;;;;;;4968391;28;20231;-72
2022/06/27 08:35:07;;;;;;;7.25;6.38;;;23.40;84.50;;;;;;4967751;28;20187;-71
2022/06/27 08:37:33;;;;;;;7.43;6.82;;;23.60;56.20;;;;;;4967119;28;20266;-71
2022/06/27 08:40:01;;;;;;;7.82;7.13;;;23.70;51.70;;;;;;4967887;28;20276;-72
2022/06/27 08:42:29;;;;;;;8.68;7.15;;;23.70;44.90;;;;;;4968002;28;20189;-71
2022/06/27 08:44:57;;;;;;;7.03;6.43;;;23.60;71.90;;;;;;4968404;28;20714;-70
2022/06/27 08:47:23;;;;;;;7.40;6.70;;;23.60;66.80;;;;;;4967188;28;20184;-72
2022/06/27 08:49:52;;;;;;;7.97;7.28;;;23.90;64.30;;;;;;4967119;28;20221;-71
2022/06/27 08:52:19;;;;;;;7.60;7.00;;;23.80;77.00;;;;;;4968295;28;20636;-72
2022/06/27 08:54:45;;;;;;;7.18;6.68;;;24.00;56.20;;;;;;4967382;28;20189;-71
2022/06/27 08:57:11;;;;;;;7.63;7.00;;;24.00;26.10;;;;;;4968028;28;20181;-70
2022/06/27 08:59:37;;;;;;;7.10;6.40;;;23.90;56.70;;;;;;4966497;28;20244;-72
2022/06/27 09:02:03;;;;;;;6.93;6.40;;;23.90;42.00;;;;;;4967989;28;20725;-72
2022/06/27 09:04:30;;;;;;;7.63;6.82;;;24.10;46.80;;;;;;4967343;28;20235;-72
2022/06/27 09:06:56;;;;;;;7.85;7.15;;;24.20;28.80;;;;;;4966634;28;20211;-71
2022/06/27 09:09:24;;;;;;;7.65;7.05;;;24.20;23.90;;;;;;4966480;28;20213;-71
2022/06/27 09:11:51;;;;;;;7.85;7.05;;;24.20;45.90;;;;;;4967831;28;20235;-72
2022/06/27 09:14:40;;;;;;;7.38;6.88;;;24.30;37.30;;;;;;4967175;28;20208;-71
2022/06/27 09:17:12;;;;;;;6.68;6.28;;;24.60;26.20;;;;;;4949952;28;20811;-71
2022/06/27 09:19:54;;;;;;;7.03;6.53;;;24.90;3.20;;;;;;4966886;28;20619;-71
2022/06/27 09:22:51;;;;;;;7.57;6.88;;;25.10;1.00;;;;;;4969321;28;20173;-72
2022/06/27 09:25:21;;;;;;;7.60;7.00;;;25.10;1.00;;;;;;4967501;28;20555;-70
2022/06/27 09:27:54;;;;;;;6.95;6.28;;;25.20;1.00;;;;;;4967070;28;20188;-70
2022/06/27 09:30:22;;;;;;;7.00;6.40;;;25.20;1.00;;;;;;4950541;28;20212;-71
2022/06/27 09:33:00;;;;;;;6.55;5.95;;;25.00;1.00;;;;;;4967528;28;20235;-72
2022/06/27 09:35:39;;;;;;;6.70;6.10;;;24.90;1.00;;;;;;4967064;28;20187;-71
2022/06/27 09:38:10;;;;;;;6.50;5.97;;;25.00;1.00;;;;;;4965205;28;20200;-73
2022/06/27 09:40:39;;;;;;;6.88;6.32;;;24.90;1.00;;;;;;4967657;28;20200;-72
2022/06/27 09:43:07;;;;;;;7.18;6.50;;;25.00;1.00;;;;;;4967456;28;20176;-72
2022/06/27 09:45:34;;;;;;;6.38;5.90;;;25.30;1.00;;;;;;4966352;28;20184;-72
2022/06/27 09:48:06;;;;;;;6.18;5.68;;;25.60;1.00;;;;;;4966229;28;20196;-72
2022/06/27 09:50:39;;;;;;;6.38;5.78;;;25.70;1.00;;;;;;4967003;28;20202;-70
2022/06/27 09:53:05;;;;;;;8.02;7.25;;;25.70;1.00;;;;;;4966751;28;20188;-71
2022/06/27 09:55:32;;;;;;;6.05;5.45;;;26.00;1.00;;;;;;4966447;28;20184;-72
2022/06/27 09:58:00;;;;;;;6.32;5.82;;;26.30;99.90;;;;;;4965421;28;20181;-70
2022/06/27 10:00:27;;;;;;;5.93;5.30;;;26.30;99.90;;;;;;4965563;28;20683;-70
2022/06/27 10:02:53;;;;;;;5.70;5.25;;;26.40;99.90;;;;;;4966506;28;20253;-70
2022/06/27 10:05:20;;;;;;;5.97;5.47;;;26.30;69.30;;;;;;4966626;28;20189;-71
2022/06/27 10:08:00;;;;;;;5.72;5.22;;;26.10;51.40;;;;;;4965891;28;20197;-71
2022/06/27 10:10:30;;;;;;;5.75;5.25;;;26.00;99.90;;;;;;4966793;28;20239;-70
2022/06/27 10:13:01;;;;;;;6.18;5.75;;;26.00;1.00;;;;;;4948914;28;20301;-72
2022/06/27 10:15:36;;;;;;;5.53;4.95;;;26.00;99.90;;;;;;4966301;28;20271;-71
2022/06/27 10:18:02;;;;;;;5.78;5.38;;;25.90;99.90;;;;;;4966059;28;20247;-71
2022/06/27 10:20:36;;;;;;;5.43;5.03;;;26.10;99.90;;;;;;4967005;28;20217;-70
2022/06/27 10:23:14;;;;;;;5.45;5.05;;;26.30;99.90;;;;;;4965236;28;20216;-71
2022/06/27 10:25:41;;;;;;;6.05;5.00;;;26.60;99.90;;;;;;4967239;28;20730;-71
2022/06/27 10:30:48;;;;;;;5.55;5.03;;;26.40;1.00;;;;;;4968759;28;20212;-71
2022/06/27 10:33:23;;;;;;;5.25;4.85;;;26.40;11.40;;;;;;4968255;28;20208;-70
2022/06/27 10:38:44;;;;;;;5.55;5.15;;;26.50;40.60;;;;;;4968286;28;20181;-71
2022/06/27 10:41:30;;;;;;;4.90;4.50;;;26.50;1.00;;;;;;4968116;28;20185;-71
2022/06/27 10:43:59;;;;;;;5.40;5.00;;;26.30;1.00;;;;;;4965471;28;20730;-70
2022/06/27 10:46:24;;;;;;;4.90;4.50;;;26.40;1.00;;;;;;4967619;28;20212;-71
2022/06/27 10:48:57;;;;;;;4.32;4.03;;;26.80;99.90;;;;;;4948278;28;20379;-71
2022/06/27 10:51:34;;;;;;;4.60;4.20;;;27.00;1.00;;;;;;4968256;28;20223;-70
2022/06/27 10:54:06;;;;;;;4.40;4.00;;;26.80;99.90;;;;;;4967935;28;20184;-71
2022/06/27 10:56:34;;;;;;;5.30;4.50;;;27.00;99.90;;;;;;4950578;28;20300;-70
2022/06/27 10:59:03;;;;;;;4.57;4.22;;;27.00;1.00;;;;;;4957686;28;20224;-71
2022/06/27 11:01:29;;;;;;;4.50;4.10;;;26.70;1.50;;;;;;4967675;28;20192;-70
2022/06/27 11:03:56;;;;;;;4.50;4.10;;;26.60;99.90;;;;;;4954841;28;20204;-71
2022/06/27 11:06:22;;;;;;;5.70;4.22;;;26.60;99.90;;;;;;4971383;28;20372;-70
2022/06/27 11:08:52;;;;;;;4.40;3.83;;;26.70;99.90;;;;;;4967646;28;20200;-70
2022/06/27 11:11:23;;;;;;;4.32;4.03;;;26.90;99.90;;;;;;4951593;28;20195;-72
2022/06/27 11:14:00;;;;;;;4.40;4.10;;;26.90;99.90;;;;;;4965950;28;20644;-71
2022/06/27 11:16:29;;;;;;;4.22;3.83;;;26.80;99.90;;;;;;4953824;28;20189;-70
2022/06/27 11:18:58;;;;;;;3.60;3.35;;;27.10;1.00;;;;;;4970604;28;20181;-70
2022/06/27 11:21:37;;;;;;;3.60;3.40;;;27.40;30.00;;;;;;4967009;28;20193;-71
2022/06/27 11:24:14;;;;;;;4.25;3.70;;;27.40;99.90;;;;;;4966662;28;20546;-70
2022/06/27 11:26:48;;;;;;;4.80;4.40;;;27.10;1.00;;;;;;4967747;28;20418;-70
2022/06/27 11:32:12;;;;;;;4.07;3.78;;;26.70;99.90;;;;;;4972738;28;20546;-70
2022/06/27 11:34:50;;;;;;;4.35;3.80;;;26.70;1.00;;;;;;4972495;28;20191;-71
2022/06/27 11:37:17;;;;;;;3.88;3.65;;;26.80;1.00;;;;;;4973310;28;20179;-72
2022/06/27 11:40:05;;;;;;;3.28;3.08;;;26.90;1.00;;;;;;4970207;28;20213;-70
2022/06/27 11:42:33;;;;;;;3.70;3.40;;;27.00;99.90;;;;;;4970229;28;20197;-72
2022/06/27 11:45:09;;;;;;;3.50;3.20;;;27.00;27.80;;;;;;4970501;28;20702;-70
2022/06/27 11:47:37;;;;;;;3.83;3.58;;;26.90;99.90;;;;;;4970388;28;20187;-71
2022/06/27 11:50:18;;;;;;;3.60;3.40;;;26.80;99.90;;;;;;4971355;28;20224;-71
2022/06/27 11:52:50;;;;;;;3.55;3.35;;;26.70;1.00;;;;;;4963841;28;20199;-70
2022/06/27 11:55:18;;;;;;;3.95;3.65;;;26.50;1.00;;;;;;4970189;28;20188;-69
2022/06/27 11:58:02;;;;;;;3.97;3.70;;;26.50;1.00;;;;;;4971548;28;20192;-70
2022/06/27 12:00:33;;;;;;;4.10;3.90;;;26.40;1.00;;;;;;4953738;28;20279;-71
2022/06/27 12:02:59;;;;;;;4.28;3.88;;;26.20;99.90;;;;;;4973401;28;20204;-70
2022/06/27 12:05:25;;;;;;;4.15;3.85;;;26.20;99.90;;;;;;4969663;28;20647;-70
2022/06/27 12:08:05;;;;;;;4.82;4.20;;;26.10;99.90;;;;;;4970563;28;20299;-70
2022/06/27 12:10:37;;;;;;;4.20;3.90;;;26.10;99.90;;;;;;4968396;28;20576;-70
2022/06/27 12:13:14;;;;;;;3.90;3.70;;;26.20;99.90;;;;;;4952056;28;20181;-71
2022/06/27 12:15:43;;;;;;;4.35;4.05;;;26.30;99.90;;;;;;4951570;28;20241;-70
2022/06/27 12:18:12;;;;;;;4.20;3.90;;;26.50;99.90;;;;;;4968555;28;20185;-71
2022/06/27 12:20:41;;;;;;;4.03;3.70;;;26.70;99.90;;;;;;4952104;28;20204;-72
2022/06/27 12:23:07;;;;;;;4.00;3.55;;;26.90;1.00;;;;;;4951867;28;20196;-71
2022/06/27 12:25:35;;;;;;;4.13;3.83;;;26.80;99.90;;;;;;4969586;28;20643;-69
2022/06/27 12:28:05;;;;;;;4.15;3.75;;;26.60;1.00;;;;;;4970031;28;20181;-70
2022/06/27 12:30:31;;;;;;;4.35;4.05;;;26.50;11.10;;;;;;4951047;28;20291;-71
2022/06/27 12:32:57;;;;;;;4.18;3.78;;;26.50;1.00;;;;;;4968809;28;20210;-71
2022/06/27 12:35:22;;;;;;;4.40;4.07;;;26.50;1.00;;;;;;4968497;28;20189;-71
2022/06/27 12:37:48;;;;;;;3.95;3.50;;;26.30;1.00;;;;;;4967985;28;20656;-70
2022/06/27 12:40:14;;;;;;;4.45;3.97;;;26.20;1.00;;;;;;4967577;28;20283;-70
2022/06/27 12:42:39;;;;;;;3.97;3.67;;;26.10;1.00;;;;;;4968743;28;20656;-69
2022/06/27 12:45:06;;;;;;;4.47;4.13;;;26.00;1.00;;;;;;4968238;28;20193;-71
2022/06/27 12:47:31;;;;;;;4.65;4.05;;;26.00;1.00;;;;;;4966683;28;20184;-71
2022/06/27 12:49:57;;;;;;;4.53;4.20;;;26.10;99.90;;;;;;4967755;28;20213;-70
2022/06/27 12:52:23;;;;;;;4.50;4.20;;;26.10;99.90;;;;;;4968562;28;20191;-69
2022/06/27 12:54:48;;;;;;;4.20;3.90;;;26.20;99.90;;;;;;4968055;28;20192;-70
2022/06/27 12:57:16;;;;;;;4.32;4.03;;;26.30;99.90;;;;;;4968399;28;20188;-69
2022/06/27 12:59:43;;;;;;;4.40;4.10;;;26.40;84.80;;;;;;4951366;28;20235;-70
2022/06/27 13:02:09;;;;;;;4.35;3.80;;;26.50;1.00;;;;;;4968683;28;20193;-70